Time;durP1;ratioP1;P1;durP2;ratioP2;P2;SDS_P1;SDS_P2;PMS_P1;PMS_P2;Temp;Humidity;BMP_temperature;BMP_pressure;BME280_temperature;BME280_humidity;BME280_pressure;Samples;Min_cycle;Max_cycle;Signal;HPM_P1;HPM_P2
2024/01/25 00:00:23;;;;;;;46.90;29.52;;;;;;;5.64;77.49;102098.75;5004278;28;20044;-80
2024/01/25 00:02:51;;;;;;;51.63;31.35;;;;;;;5.56;77.40;102091.19;5026439;28;20057;-81
2024/01/25 00:05:21;;;;;;;47.58;30.95;;;;;;;5.39;77.56;102058.59;5016629;28;20200;-80
2024/01/25 00:07:49;;;;;;;47.92;29.45;;;;;;;5.37;77.63;102045.53;5015900;28;20132;-82
2024/01/25 00:10:17;;;;;;;52.42;31.10;;;;;;;5.57;77.43;102076.25;5006787;28;20479;-80
2024/01/25 00:12:49;;;;;;;47.28;28.98;;;;;;;5.48;77.50;102068.75;4999796;28;20068;-81
2024/01/25 00:15:16;;;;;;;49.80;30.77;;;;;;;5.24;78.07;102032.06;4974897;28;20044;-81
2024/01/25 00:17:52;;;;;;;43.08;29.20;;;;;;;5.38;77.80;102059.53;4989607;28;20130;-82
2024/01/25 00:20:21;;;;;;;46.85;27.58;;;;;;;5.33;78.25;102065.84;4975968;28;20486;-80
2024/01/25 00:22:51;;;;;;;49.28;30.27;;;;;;;5.35;78.47;102087.72;4967274;28;20060;-80
2024/01/25 00:25:22;;;;;;;52.03;29.52;;;;;;;5.39;78.48;102090.22;4960312;28;20377;-82
2024/01/25 00:27:48;;;;;;;51.85;29.52;;;;;;;5.29;78.53;102055.53;4967507;28;20048;-81
2024/01/25 00:30:16;;;;;;;47.38;28.20;;;;;;;5.40;78.61;102081.41;4976224;28;20460;-79
2024/01/25 00:32:51;;;;;;;55.33;27.98;;;;;;;4.80;78.93;101976.88;4973407;28;20054;-80
2024/01/25 00:35:18;;;;;;;52.00;28.05;;;;;;;5.34;78.67;102086.03;4990106;28;20047;-79
2024/01/25 00:37:45;;;;;;;44.53;26.85;;;;;;;4.82;78.95;102009.25;4989674;28;20308;-80
2024/01/25 00:40:16;;;;;;;43.58;27.05;;;;;;;5.19;79.46;102076.13;4980163;28;20577;-82
2024/01/25 00:42:45;;;;;;;47.42;27.10;;;;;;;5.34;79.19;102077.28;4991406;28;20041;-81
2024/01/25 00:45:13;;;;;;;45.55;25.88;;;;;;;5.33;79.26;102046.56;4972750;28;20401;-80
2024/01/25 00:47:40;;;;;;;47.05;26.10;;;;;;;5.47;78.82;102069.69;4955342;28;20099;-81
2024/01/25 00:50:07;;;;;;;49.88;27.75;;;;;;;5.40;78.90;102078.78;4955434;28;20134;-80
2024/01/25 00:52:35;;;;;;;43.90;25.67;;;;;;;5.32;79.02;102068.56;4984374;28;20064;-81
2024/01/25 00:55:02;;;;;;;42.90;25.75;;;;;;;5.56;78.34;102064.00;4957826;28;20057;-82
2024/01/25 00:57:34;;;;;;;51.35;28.80;;;;;;;5.58;78.35;102062.13;4955133;28;20087;-82
2024/01/25 01:00:08;;;;;;;42.88;23.73;;;;;;;5.50;78.14;102053.72;4962752;28;20605;-81
2024/01/25 01:02:44;;;;;;;46.03;26.58;;;;;;;5.46;78.41;102067.94;4999282;28;20486;-82
2024/01/25 01:05:22;;;;;;;44.03;26.10;;;;;;;5.40;78.19;102073.50;4992496;28;20102;-80
2024/01/25 01:07:50;;;;;;;45.92;25.35;;;;;;;5.33;78.63;102073.75;5005510;28;20398;-80
2024/01/25 01:10:17;;;;;;;44.50;25.45;;;;;;;5.33;78.88;102081.66;4969867;28;20052;-79
2024/01/25 01:12:44;;;;;;;46.40;27.33;;;;;;;5.32;79.51;102082.59;4975166;28;20052;-80
2024/01/25 01:15:15;;;;;;;43.92;26.75;;;;;;;5.21;79.16;102073.44;4967556;28;20467;-82
2024/01/25 01:17:48;;;;;;;44.80;27.63;;;;;;;4.86;79.45;102029.28;4989923;28;20304;-80
2024/01/25 01:20:15;;;;;;;42.80;27.13;;;;;;;5.11;79.33;102067.72;4991458;28;20678;-83
2024/01/25 01:22:42;;;;;;;46.15;26.60;;;;;;;5.11;79.88;102078.25;5024325;28;20215;-80
2024/01/25 01:25:10;;;;;;;48.72;28.20;;;;;;;4.96;79.94;102042.06;4988907;28;20059;-79
2024/01/25 01:27:39;;;;;;;46.45;26.20;;;;;;;5.25;79.50;102089.03;5013878;28;20336;-83
2024/01/25 01:30:11;;;;;;;40.40;26.58;;;;;;;5.29;79.15;102082.72;5001991;28;20048;-82
2024/01/25 01:32:40;;;;;;;41.53;26.40;;;;;;;5.02;79.15;102049.66;5009718;28;20498;-80
2024/01/25 01:35:07;;;;;;;45.33;26.85;;;;;;;5.09;79.75;102059.88;4983410;28;20111;-82
2024/01/25 01:37:34;;;;;;;49.05;25.58;;;;;;;5.12;79.57;102064.13;5000220;28;20048;-79
2024/01/25 01:40:01;;;;;;;49.85;27.85;;;;;;;5.09;79.67;102064.28;4966556;28;20224;-82
2024/01/25 01:42:35;;;;;;;48.80;27.13;;;;;;;5.03;79.76;102060.16;4979906;28;20340;-82
2024/01/25 01:45:08;;;;;;;48.92;28.02;;;;;;;5.01;79.63;102053.22;4968426;28;20094;-83
2024/01/25 01:47:39;;;;;;;50.83;29.98;;;;;;;4.92;80.01;102044.78;4962253;28;20410;-80
2024/01/25 01:50:07;;;;;;;48.40;26.65;;;;;;;4.91;79.64;102032.56;4944557;28;20049;-81
2024/01/25 01:52:38;;;;;;;45.13;26.90;;;;;;;4.75;79.74;102020.97;4946503;28;20353;-82
2024/01/25 01:55:07;;;;;;;48.55;28.45;;;;;;;4.95;79.89;102056.97;4943248;28;20102;-80
2024/01/25 01:57:36;;;;;;;45.00;28.63;;;;;;;5.13;79.93;102069.34;4991866;28;20048;-81
2024/01/25 02:00:08;;;;;;;48.45;28.33;;;;;;;4.67;80.17;102005.50;4979454;28;20078;-83
2024/01/25 02:02:36;;;;;;;51.22;29.38;;;;;;;5.16;79.57;102060.47;4975673;28;20048;-81
2024/01/25 02:05:03;;;;;;;43.95;27.40;;;;;;;5.15;79.45;102061.41;4994228;28;20316;-78
2024/01/25 02:07:31;;;;;;;44.85;26.98;;;;;;;4.13;79.81;101895.59;5039452;28;20098;-80
2024/01/25 02:10:00;;;;;;;54.92;29.15;;;;;;;4.96;79.74;102058.69;5050854;28;20056;-80
2024/01/25 02:12:27;;;;;;;53.85;29.65;;;;;;;4.72;80.34;102029.84;5042491;28;20477;-81
2024/01/25 02:14:54;;;;;;;52.88;29.50;;;;;;;4.88;79.77;102069.53;5043759;28;20059;-81
2024/01/25 02:17:21;;;;;;;53.35;32.28;;;;;;;4.77;79.81;102042.81;5029989;28;20140;-81
2024/01/25 02:19:47;;;;;;;55.33;32.30;;;;;;;4.45;79.66;101991.53;5028806;28;20418;-80
2024/01/25 02:22:18;;;;;;;54.30;33.75;;;;;;;4.87;79.73;102062.56;5022141;28;20048;-80
2024/01/25 02:24:45;;;;;;;62.97;34.40;;;;;;;4.72;79.53;102050.03;5027365;28;20040;-81
2024/01/25 02:27:12;;;;;;;64.78;36.15;;;;;;;4.95;78.93;102064.84;5031009;28;20049;-81
2024/01/25 02:29:39;;;;;;;62.88;36.08;;;;;;;4.95;78.56;102029.78;5022772;28;20048;-82
2024/01/25 02:32:06;;;;;;;66.35;37.92;;;;;;;5.07;78.67;102055.59;5015539;28;20052;-83
2024/01/25 02:34:35;;;;;;;69.97;36.83;;;;;;;4.88;78.76;102037.97;5012120;28;20064;-83
2024/01/25 02:37:02;;;;;;;62.38;34.88;;;;;;;4.68;78.57;102006.34;5040751;28;20044;-81
2024/01/25 02:39:29;;;;;;;63.50;36.10;;;;;;;4.68;78.79;102019.50;5037223;28;20564;-80
2024/01/25 02:42:01;;;;;;;64.43;35.90;;;;;;;4.72;78.82;102044.78;5025344;28;20045;-83
2024/01/25 02:44:30;;;;;;;69.22;36.03;;;;;;;4.69;79.54;102051.03;5048620;28;20053;-82
2024/01/25 02:46:57;;;;;;;57.28;36.25;;;;;;;4.62;79.77;102048.72;5019254;28;20424;-79
2024/01/25 02:49:24;;;;;;;66.82;37.25;;;;;;;4.59;79.97;102054.94;4998783;28;20052;-80
2024/01/25 02:51:55;;;;;;;60.90;36.63;;;;;;;4.32;79.92;101993.81;5024313;28;20049;-83
2024/01/25 02:54:26;;;;;;;65.88;37.17;;;;;;;4.58;79.98;102036.59;5004973;28;20104;-80
2024/01/25 02:56:56;;;;;;;64.82;37.58;;;;;;;4.79;80.10;102045.38;5004345;28;20052;-80
2024/01/25 02:59:26;;;;;;;61.95;36.90;;;;;;;4.70;79.45;102029.03;4999108;28;20490;-82
2024/01/25 03:01:54;;;;;;;65.82;36.40;;;;;;;4.85;79.60;102032.81;5023290;28;20398;-80
2024/01/25 03:04:21;;;;;;;64.80;36.85;;;;;;;4.77;79.43;101999.88;5022526;28;20127;-81
2024/01/25 03:06:48;;;;;;;62.47;35.13;;;;;;;4.81;79.40;102001.47;5034051;28;20067;-81
2024/01/25 03:09:16;;;;;;;65.20;36.88;;;;;;;4.92;78.98;102018.47;5039247;28;20048;-80
2024/01/25 03:11:49;;;;;;;58.42;35.08;;;;;;;5.00;78.58;102019.91;5033830;28;20345;-79
2024/01/25 03:14:15;;;;;;;58.05;35.55;;;;;;;4.66;79.11;101989.78;5036696;28;20413;-79
2024/01/25 03:16:43;;;;;;;63.22;35.65;;;;;;;4.60;79.27;101998.78;5021326;28;20425;-78
2024/01/25 03:19:11;;;;;;;59.53;34.55;;;;;;;4.78;79.85;102027.88;4990381;28;20143;-80
2024/01/25 03:21:38;;;;;;;56.45;33.15;;;;;;;4.80;79.53;102024.25;5002077;28;20514;-81
2024/01/25 03:24:05;;;;;;;65.57;35.25;;;;;;;4.89;79.40;102026.50;5002337;28;20110;-80
2024/01/25 03:26:35;;;;;;;76.15;34.63;;;;;;;4.84;79.11;102033.75;5024281;28;20307;-81
2024/01/25 03:29:04;;;;;;;68.95;35.90;;;;;;;4.83;78.59;102018.88;5021939;28;20090;-80
2024/01/25 03:31:31;;;;;;;61.83;35.90;;;;;;;4.63;78.60;101987.28;5022389;28;20626;-79
2024/01/25 03:33:58;;;;;;;69.10;37.60;;;;;;;4.73;79.17;102014.91;5000254;28;20181;-81
2024/01/25 03:36:25;;;;;;;58.53;36.22;;;;;;;4.72;79.64;102029.00;5020719;28;20302;-81
2024/01/25 03:38:52;;;;;;;62.40;35.00;;;;;;;4.41;79.43;102001.31;5024198;28;20046;-80
2024/01/25 03:41:20;;;;;;;57.13;35.40;;;;;;;4.43;79.13;102012.63;5016219;28;20044;-79
2024/01/25 03:43:48;;;;;;;64.35;35.42;;;;;;;4.38;80.00;102011.97;5033564;28;20346;-80
2024/01/25 03:46:19;;;;;;;61.75;36.40;;;;;;;4.60;79.75;102013.72;5021617;28;20337;-83
2024/01/25 03:48:49;;;;;;;57.85;32.75;;;;;;;4.49;80.06;102014.16;5016602;28;20052;-83
2024/01/25 03:51:16;;;;;;;62.33;36.20;;;;;;;4.47;80.10;102027.38;5006609;28;20415;-82
2024/01/25 03:53:43;;;;;;;63.00;38.03;;;;;;;4.43;79.99;102023.16;5025649;28;20049;-79
2024/01/25 03:56:12;;;;;;;68.88;37.53;;;;;;;4.03;80.15;101964.28;5018796;28;20053;-79
2024/01/25 03:58:39;;;;;;;67.00;38.45;;;;;;;4.23;79.65;102013.44;5015974;28;20498;-79
2024/01/25 04:01:09;;;;;;;63.72;37.28;;;;;;;4.38;79.66;102035.63;5000815;28;20045;-83
2024/01/25 04:03:41;;;;;;;72.95;39.53;;;;;;;4.38;80.31;102040.88;5011187;28;20079;-83
2024/01/25 04:06:08;;;;;;;80.75;41.15;;;;;;;4.38;80.21;102030.38;5040311;28;20124;-81
2024/01/25 04:08:38;;;;;;;62.13;36.78;;;;;;;4.32;80.42;102030.63;5022004;28;20048;-83
2024/01/25 04:11:05;;;;;;;68.40;38.17;;;;;;;4.28;80.07;102026.41;4997018;28;20059;-80
2024/01/25 04:13:32;;;;;;;67.88;38.97;;;;;;;4.15;80.28;102006.75;4997270;28;20059;-81
2024/01/25 04:15:59;;;;;;;70.38;41.33;;;;;;;4.32;80.37;102045.53;4977447;28;20041;-82
2024/01/25 04:18:26;;;;;;;72.88;39.55;;;;;;;4.21;80.13;102043.34;5027684;28;20494;-79
2024/01/25 04:20:54;;;;;;;60.95;36.92;;;;;;;4.25;80.63;102051.03;5009825;28;20132;-83
2024/01/25 04:23:21;;;;;;;65.15;38.35;;;;;;;4.06;80.44;102039.53;5034422;28;20079;-79
2024/01/25 04:25:48;;;;;;;60.70;37.05;;;;;;;4.18;80.27;102061.84;5030439;28;20696;-82
2024/01/25 04:28:15;;;;;;;69.00;39.28;;;;;;;3.84;80.98;102002.72;5029978;28;20139;-81
2024/01/25 04:30:45;;;;;;;72.65;39.33;;;;;;;4.01;80.95;102028.34;5027051;28;20041;-81
2024/01/25 04:33:12;;;;;;;66.72;39.58;;;;;;;4.15;80.58;102051.44;5013819;28;20405;-82
2024/01/25 04:35:39;;;;;;;65.43;37.60;;;;;;;4.02;80.82;102035.31;5024851;28;20390;-83
2024/01/25 04:38:06;;;;;;;64.63;37.55;;;;;;;4.05;80.65;102049.19;5023795;28;20131;-82
2024/01/25 04:40:36;;;;;;;67.75;37.97;;;;;;;4.03;81.10;102040.50;5029315;28;20072;-83
2024/01/25 04:43:08;;;;;;;66.72;38.97;;;;;;;3.84;81.16;102010.59;5014605;28;20056;-83
2024/01/25 04:45:36;;;;;;;67.20;40.50;;;;;;;3.68;81.10;101993.69;5026424;28;20037;-82
2024/01/25 04:48:03;;;;;;;71.03;40.58;;;;;;;4.04;81.37;102047.47;5021462;28;20055;-80
2024/01/25 04:50:30;;;;;;;69.68;38.22;;;;;;;3.61;81.36;101975.53;4998060;28;20421;-81
2024/01/25 04:53:02;;;;;;;68.28;39.20;;;;;;;3.94;81.26;102018.97;5021746;28;20041;-82
2024/01/25 04:55:32;;;;;;;57.70;36.30;;;;;;;3.94;81.66;102034.75;5026740;28;20063;-80
2024/01/25 04:57:59;;;;;;;72.40;40.22;;;;;;;3.98;81.68;102044.22;5004011;28;20072;-82
2024/01/25 05:00:26;;;;;;;80.13;39.72;;;;;;;3.93;81.53;102033.91;5023773;28;20250;-82
2024/01/25 05:02:54;;;;;;;60.47;37.63;;;;;;;3.93;81.66;102026.03;5022049;28;20088;-80
2024/01/25 05:05:21;;;;;;;72.25;37.63;;;;;;;4.17;81.89;102054.88;5015372;28;20041;-80
2024/01/25 05:07:48;;;;;;;60.63;36.85;;;;;;;4.04;81.91;102030.84;5032960;28;20052;-79
2024/01/25 05:10:15;;;;;;;71.03;37.85;;;;;;;4.23;82.07;102054.66;5016057;28;20045;-82
2024/01/25 05:12:47;;;;;;;65.57;37.80;;;;;;;4.25;81.77;102060.72;4996520;28;20327;-83
2024/01/25 05:15:21;;;;;;;62.28;36.45;;;;;;;4.21;81.72;102061.72;4965364;28;20136;-80
2024/01/25 05:17:47;;;;;;;66.03;37.70;;;;;;;4.19;81.17;102072.28;4983535;28;20056;-79
2024/01/25 05:20:17;;;;;;;71.38;36.38;;;;;;;4.22;81.10;102066.06;4991329;28;20053;-80
2024/01/25 05:22:45;;;;;;;67.30;38.67;;;;;;;4.20;81.21;102053.00;4997616;28;20064;-80
2024/01/25 05:25:12;;;;;;;73.28;38.00;;;;;;;4.13;81.40;102040.16;5014247;28;20048;-80
2024/01/25 05:27:39;;;;;;;65.00;36.55;;;;;;;4.12;81.03;102043.69;5013756;28;20045;-82
2024/01/25 05:30:10;;;;;;;63.13;37.80;;;;;;;4.04;81.44;102047.47;5015182;28;20663;-79
2024/01/25 05:32:39;;;;;;;69.40;40.00;;;;;;;4.04;81.69;102057.97;4967806;28;20045;-80
2024/01/25 05:35:07;;;;;;;72.07;39.72;;;;;;;4.11;81.70;102076.16;5018274;28;20137;-80
2024/01/25 05:37:35;;;;;;;59.05;37.70;;;;;;;3.81;81.45;102029.97;5041669;28;20390;-82
2024/01/25 05:40:02;;;;;;;62.95;37.03;;;;;;;3.96;81.63;102049.53;5015085;28;20052;-81
2024/01/25 05:42:29;;;;;;;61.17;37.95;;;;;;;4.05;82.16;102071.97;4998469;28;20045;-80
2024/01/25 05:44:56;;;;;;;62.97;36.60;;;;;;;3.77;81.92;102011.75;5005721;28;20525;-80
2024/01/25 05:47:23;;;;;;;63.03;37.00;;;;;;;3.92;82.07;102026.06;5017341;28;20060;-80
2024/01/25 05:49:50;;;;;;;59.15;36.00;;;;;;;4.18;82.47;102059.22;5006469;28;20052;-79
2024/01/25 05:52:17;;;;;;;62.53;37.13;;;;;;;4.01;81.96;102016.06;4996445;28;20376;-82
2024/01/25 05:54:44;;;;;;;63.78;36.05;;;;;;;4.11;81.65;102039.34;5000903;28;20080;-81
2024/01/25 05:57:11;;;;;;;60.25;35.78;;;;;;;4.06;81.65;102048.25;5004726;28;20049;-81
2024/01/25 05:59:38;;;;;;;64.78;36.10;;;;;;;4.00;81.67;102035.34;5009397;28;20110;-82
2024/01/25 06:02:08;;;;;;;64.00;37.03;;;;;;;4.06;82.55;102045.63;5013538;28;20246;-82
2024/01/25 06:04:35;;;;;;;67.43;37.10;;;;;;;4.11;83.12;102047.25;5011686;28;20060;-81
2024/01/25 06:07:02;;;;;;;70.03;44.92;;;;;;;4.05;82.55;102043.94;5020460;28;20075;-80
2024/01/25 06:09:29;;;;;;;61.33;36.00;;;;;;;3.96;82.59;102038.19;5017165;28;20286;-81
2024/01/25 06:11:56;;;;;;;63.28;34.10;;;;;;;4.03;82.56;102056.28;5023333;28;20079;-82
2024/01/25 06:14:24;;;;;;;65.60;38.28;;;;;;;3.94;82.26;102032.97;5037882;28;20048;-80
2024/01/25 06:16:50;;;;;;;62.58;36.75;;;;;;;3.80;82.17;102016.88;5034128;28;20053;-82
2024/01/25 06:19:21;;;;;;;64.00;34.88;;;;;;;4.24;82.80;102077.38;5032584;28;20241;-82
2024/01/25 06:21:51;;;;;;;69.53;36.90;;;;;;;4.07;82.35;102057.84;5023716;28;20049;-82
2024/01/25 06:24:21;;;;;;;58.05;35.33;;;;;;;4.18;82.41;102077.63;5040928;28;20048;-82
2024/01/25 06:26:48;;;;;;;70.53;37.88;;;;;;;4.23;82.24;102073.06;5041040;28;20069;-82
2024/01/25 06:29:17;;;;;;;75.63;36.15;;;;;;;3.99;81.54;102033.66;5024858;28;20116;-82
2024/01/25 06:31:44;;;;;;;67.55;37.30;;;;;;;4.17;81.77;102079.38;5027692;28;20049;-82
2024/01/25 06:34:21;;;;;;;61.45;33.85;;;;;;;4.02;82.06;102059.81;5018584;28;20049;-82
2024/01/25 06:37:00;;;;;;;59.97;35.17;;;;;;;4.17;82.32;102073.28;4994776;28;20067;-82
2024/01/25 06:39:27;;;;;;;69.78;36.88;;;;;;;3.65;82.08;101992.06;5028833;28;20052;-82
2024/01/25 06:41:54;;;;;;;58.45;35.67;;;;;;;4.00;82.40;102048.50;5021021;28;20131;-83
2024/01/25 06:44:22;;;;;;;56.25;34.70;;;;;;;3.82;82.98;102010.66;5019843;28;20143;-82
2024/01/25 06:46:50;;;;;;;61.15;33.70;;;;;;;4.18;82.61;102075.84;5010671;28;20429;-80
2024/01/25 06:49:18;;;;;;;57.60;34.63;;;;;;;3.72;83.08;102001.41;5019022;28;20041;-80
2024/01/25 06:51:46;;;;;;;55.95;33.10;;;;;;;4.21;83.14;102069.63;5022191;28;20088;-82
2024/01/25 06:54:14;;;;;;;58.90;32.67;;;;;;;4.10;83.19;102049.00;5039142;28;20044;-80
2024/01/25 06:56:59;;;;;;;55.13;33.75;;;;;;;4.16;82.97;102055.81;4978107;28;20080;-82
2024/01/25 06:59:33;;;;;;;76.28;40.95;;;;;;;4.20;82.58;102062.63;5015858;28;20052;-82
2024/01/25 07:02:02;;;;;;;72.63;38.53;;;;;;;4.20;80.99;102073.16;5032046;28;20139;-82
2024/01/25 07:04:33;;;;;;;68.68;39.13;;;;;;;4.05;81.04;102071.97;5037709;28;20537;-82
2024/01/25 07:07:02;;;;;;;70.32;39.92;;;;;;;4.09;81.52;102067.47;5007832;28;20088;-82
2024/01/25 07:09:31;;;;;;;67.13;39.15;;;;;;;4.06;81.16;102061.41;5039174;28;20072;-83
2024/01/25 07:11:59;;;;;;;68.57;40.92;;;;;;;3.92;81.16;102042.69;5031652;28;20041;-81
2024/01/25 07:14:30;;;;;;;73.22;39.92;;;;;;;4.01;81.53;102063.34;5035644;28;20095;-81
2024/01/25 07:17:00;;;;;;;71.93;40.95;;;;;;;4.00;81.55;102068.66;5017272;28;20049;-82
2024/01/25 07:19:28;;;;;;;76.75;42.25;;;;;;;4.00;81.79;102080.03;5030260;28;20049;-82
2024/01/25 07:21:55;;;;;;;71.13;40.55;;;;;;;4.02;81.84;102069.47;5025174;28;20086;-83
2024/01/25 07:24:22;;;;;;;66.97;39.38;;;;;;;3.77;82.19;102027.50;5038222;28;20087;-81
2024/01/25 07:26:49;;;;;;;76.88;40.15;;;;;;;3.98;82.62;102047.72;5029299;28;20048;-82
2024/01/25 07:29:18;;;;;;;74.05;41.72;;;;;;;4.07;83.26;102060.47;5013850;28;20232;-82
2024/01/25 07:31:46;;;;;;;77.13;41.10;;;;;;;4.12;83.05;102064.72;5023125;28;20040;-82
2024/01/25 07:34:16;;;;;;;67.50;39.00;;;;;;;4.02;82.99;102049.28;5011786;28;20488;-83
2024/01/25 07:36:44;;;;;;;62.17;38.40;;;;;;;4.12;83.75;102054.19;5016300;28;20506;-82
2024/01/25 07:39:11;;;;;;;77.20;41.83;;;;;;;4.21;83.07;102049.44;5012726;28;20107;-82
2024/01/25 07:41:39;;;;;;;68.45;42.72;;;;;;;4.38;82.16;102088.22;5036080;28;20275;-82
2024/01/25 07:44:13;;;;;;;75.95;44.90;;;;;;;4.41;80.95;102081.97;5020121;28;20044;-81
2024/01/25 07:46:43;;;;;;;74.95;44.47;;;;;;;4.32;79.52;102067.44;5015722;28;20048;-82
2024/01/25 07:49:11;;;;;;;77.90;45.13;;;;;;;4.31;79.33;102075.38;5019099;28;20059;-82
2024/01/25 07:51:39;;;;;;;82.82;45.17;;;;;;;4.37;79.11;102081.25;5014388;28;20786;-83
2024/01/25 07:54:05;;;;;;;81.82;46.13;;;;;;;4.16;78.42;102076.81;5016612;28;20056;-82
2024/01/25 07:56:33;;;;;;;88.53;47.85;;;;;;;4.37;79.14;102102.28;5016513;28;20412;-82
2024/01/25 07:59:06;;;;;;;86.05;49.28;;;;;;;4.31;79.21;102096.41;5017214;28;20044;-82
2024/01/25 08:01:33;;;;;;;87.82;50.60;;;;;;;4.24;78.65;102104.50;5020065;28;20051;-83
2024/01/25 08:04:04;;;;;;;96.57;52.53;;;;;;;4.20;79.28;102089.78;5011519;28;20080;-82
2024/01/25 08:06:34;;;;;;;104.15;54.35;;;;;;;4.35;79.42;102105.91;5037276;28;20040;-80
2024/01/25 08:09:02;;;;;;;95.53;54.45;;;;;;;4.35;79.26;102113.78;5020040;28;20069;-82
2024/01/25 08:11:30;;;;;;;111.28;56.65;;;;;;;4.12;79.03;102085.75;5042807;28;20125;-81
2024/01/25 08:13:57;;;;;;;90.20;52.20;;;;;;;4.34;79.26;102120.78;5009610;28;20132;-82
2024/01/25 08:16:24;;;;;;;99.60;54.92;;;;;;;4.33;79.65;102124.34;5014728;28;20140;-81
2024/01/25 08:18:53;;;;;;;99.88;53.03;;;;;;;4.36;80.21;102111.09;5038539;28;20081;-82
2024/01/25 08:21:26;;;;;;;102.10;54.00;;;;;;;4.47;79.75;102119.41;5026603;28;20567;-82
2024/01/25 08:23:54;;;;;;;95.40;53.30;;;;;;;4.48;79.11;102105.34;5026590;28;20040;-80
2024/01/25 08:26:25;;;;;;;95.47;53.30;;;;;;;4.50;79.39;102103.50;5025653;28;20056;-82
2024/01/25 08:28:59;;;;;;;86.40;51.20;;;;;;;4.73;79.33;102130.66;5023654;28;20048;-80
2024/01/25 08:31:30;;;;;;;101.05;53.58;;;;;;;4.80;79.11;102131.28;5017949;28;20302;-81
2024/01/25 08:33:57;;;;;;;98.03;52.22;;;;;;;4.75;78.37;102126.19;5014638;28;20098;-79
2024/01/25 08:36:30;;;;;;;101.97;53.33;;;;;;;4.86;79.10;102142.44;5045480;28;20070;-80
2024/01/25 08:38:57;;;;;;;110.43;54.53;;;;;;;4.95;79.08;102151.72;5027720;28;20052;-82
2024/01/25 08:41:24;;;;;;;94.28;50.33;;;;;;;4.76;79.15;102101.63;5027756;28;20471;-82
2024/01/25 08:43:58;;;;;;;104.50;54.72;;;;;;;5.12;78.50;102156.28;5026889;28;20051;-83
2024/01/25 08:46:35;;;;;;;97.20;52.25;;;;;;;5.25;77.69;102162.78;5014638;28;20049;-83
2024/01/25 08:49:08;;;;;;;91.30;55.45;;;;;;;5.18;77.96;102120.97;5033425;28;20047;-83
2024/01/25 08:51:35;;;;;;;102.78;54.97;;;;;;;5.42;77.72;102156.78;5015862;28;20522;-82
2024/01/25 08:54:03;;;;;;;107.15;58.78;;;;;;;5.51;77.04;102155.53;5026664;28;20372;-83
2024/01/25 08:56:30;;;;;;;107.50;56.72;;;;;;;5.60;77.51;102164.81;5016267;28;20064;-82
2024/01/25 08:58:57;;;;;;;100.85;55.50;;;;;;;5.60;76.94;102149.03;5017700;28;20079;-83
2024/01/25 09:01:25;;;;;;;113.75;58.97;;;;;;;5.74;76.62;102181.75;5006222;28;20068;-82
2024/01/25 09:03:54;;;;;;;109.63;58.15;;;;;;;5.54;76.64;102147.50;5017449;28;20319;-82
2024/01/25 09:06:24;;;;;;;105.40;61.58;;;;;;;5.76;76.44;102193.09;5034245;28;20465;-84
2024/01/25 09:08:54;;;;;;;110.18;60.50;;;;;;;5.84;76.40;102202.44;5017317;28;20045;-81
2024/01/25 09:11:22;;;;;;;114.68;65.63;;;;;;;5.91;76.70;102206.53;5019343;28;20399;-81
2024/01/25 09:13:53;;;;;;;124.22;67.38;;;;;;;5.95;77.03;102222.16;5019634;28;20079;-83
2024/01/25 09:16:22;;;;;;;142.32;68.93;;;;;;;5.90;76.86;102220.63;5035099;28;20056;-82
2024/01/25 09:18:50;;;;;;;123.68;68.70;;;;;;;6.01;76.93;102228.94;5023679;28;20037;-83
2024/01/25 09:21:20;;;;;;;129.63;70.25;;;;;;;6.07;76.60;102233.97;5020408;28;20472;-83
2024/01/25 09:23:48;;;;;;;138.57;70.90;;;;;;;6.14;76.59;102232.78;5007892;28;20190;-82
2024/01/25 09:26:19;;;;;;;134.75;70.75;;;;;;;6.14;76.44;102235.41;5033025;28;20597;-83
2024/01/25 09:28:49;;;;;;;146.20;73.78;;;;;;;6.18;75.77;102230.84;4991955;28;20174;-83
2024/01/25 09:31:19;;;;;;;150.75;74.70;;;;;;;6.08;75.56;102196.13;4989985;28;20509;-81
2024/01/25 09:33:47;;;;;;;190.75;92.35;;;;;;;6.33;75.73;102260.94;5003214;28;20433;-83
2024/01/25 09:36:19;;;;;;;174.25;90.63;;;;;;;6.44;75.73;102242.03;4997559;28;20435;-82
2024/01/25 09:38:52;;;;;;;171.18;85.47;;;;;;;6.48;76.05;102241.81;5017627;28;20064;-81
2024/01/25 09:41:19;;;;;;;160.75;84.72;;;;;;;6.54;76.00;102249.44;5020598;28;20049;-83
2024/01/25 09:43:46;;;;;;;183.27;91.88;;;;;;;6.54;76.02;102265.25;5022277;28;20052;-83
2024/01/25 09:46:15;;;;;;;184.73;92.63;;;;;;;6.57;75.54;102244.00;5021517;28;20063;-82
2024/01/25 09:48:49;;;;;;;172.82;86.28;;;;;;;6.60;75.55;102238.59;5021482;28;20301;-83
2024/01/25 09:51:21;;;;;;;161.30;86.80;;;;;;;6.69;75.63;102262.84;5025867;28;20132;-83
2024/01/25 09:53:53;;;;;;;179.07;86.50;;;;;;;6.73;76.00;102253.88;5024936;28;20087;-82
2024/01/25 09:56:22;;;;;;;186.93;91.72;;;;;;;6.78;74.88;102225.47;5041902;28;20195;-83
2024/01/25 09:58:50;;;;;;;186.27;95.82;;;;;;;7.02;74.45;102266.56;5026631;28;20040;-83
2024/01/25 10:01:19;;;;;;;195.32;98.28;;;;;;;7.05;74.03;102258.47;4993201;28;20357;-82
2024/01/25 10:03:46;;;;;;;205.63;101.78;;;;;;;7.19;72.08;102254.34;5000910;28;20054;-82
2024/01/25 10:06:16;;;;;;;212.57;100.38;;;;;;;7.11;72.62;102222.13;4996774;28;20407;-83
2024/01/25 10:08:43;;;;;;;201.95;98.88;;;;;;;7.51;71.80;102265.97;5000587;28;20050;-82
2024/01/25 10:11:14;;;;;;;213.65;97.65;;;;;;;7.60;71.42;102257.59;4997793;28;20504;-82
2024/01/25 10:13:42;;;;;;;189.93;96.50;;;;;;;7.74;71.27;102251.59;4985719;28;20077;-82
2024/01/25 10:16:16;;;;;;;200.77;97.82;;;;;;;7.61;70.84;102232.00;5009192;28;20057;-82
2024/01/25 10:18:45;;;;;;;194.55;95.38;;;;;;;7.78;70.94;102242.56;4997287;28;20055;-81
2024/01/25 10:21:16;;;;;;;186.25;92.72;;;;;;;7.48;70.77;102174.47;4996970;28;20160;-83
2024/01/25 10:23:47;;;;;;;198.10;95.63;;;;;;;7.46;70.55;102162.28;4993931;28;20517;-81
2024/01/25 10:26:16;;;;;;;202.73;96.18;;;;;;;7.94;70.49;102229.44;4991564;28;20398;-82
2024/01/25 10:28:50;;;;;;;180.55;88.70;;;;;;;7.98;70.74;102235.41;4992115;28;20057;-82
2024/01/25 10:31:25;;;;;;;192.85;92.53;;;;;;;7.94;69.70;102213.56;4995789;28;20046;-83
2024/01/25 10:33:54;;;;;;;200.18;92.82;;;;;;;7.90;69.01;102207.56;5002096;28;20057;-82
2024/01/25 10:36:26;;;;;;;201.50;92.35;;;;;;;7.88;68.67;102182.97;5002606;28;20786;-82
2024/01/25 10:38:54;;;;;;;225.00;102.27;;;;;;;7.96;69.14;102201.13;4988966;28;20315;-83
2024/01/25 10:41:24;;;;;;;203.82;91.57;;;;;;;7.90;68.76;102156.47;4997770;28;20054;-83
2024/01/25 10:43:57;;;;;;;;;;;;;;;8.18;68.10;102194.66;4997823;28;20288;-82
2024/01/25 10:46:28;;;;;;;199.93;94.85;;;;;;;8.16;68.26;102173.59;4985327;28;19922;-83
2024/01/25 10:48:59;;;;;;;215.00;92.30;;;;;;;8.29;68.95;102193.16;4983867;28;20480;-81
2024/01/25 10:51:30;;;;;;;217.80;101.82;;;;;;;8.18;67.99;102157.63;5008149;28;20390;-82
2024/01/25 10:54:01;;;;;;;200.20;92.47;;;;;;;8.23;66.97;102169.69;4997485;28;20511;-81
2024/01/25 10:56:28;;;;;;;208.23;97.57;;;;;;;8.27;67.34;102151.84;4991480;28;20264;-82
2024/01/25 10:58:55;;;;;;;204.73;93.50;;;;;;;8.40;67.67;102157.34;4987153;28;20057;-82
2024/01/25 11:01:23;;;;;;;186.82;85.75;;;;;;;8.58;68.07;102176.66;4998194;28;20064;-85
2024/01/25 11:03:50;;;;;;;200.07;92.68;;;;;;;8.50;67.74;102167.34;5003969;28;20324;-82
2024/01/25 11:06:25;;;;;;;179.23;87.65;;;;;;;8.63;68.39;102180.75;5006236;28;20289;-81
2024/01/25 11:09:04;;;;;;;202.13;91.47;;;;;;;8.72;68.38;102174.09;4984912;28;20108;-81
2024/01/25 11:11:32;;;;;;;186.57;88.75;;;;;;;8.34;68.51;102090.56;4993158;28;20045;-80
2024/01/25 11:14:03;;;;;;;193.68;91.15;;;;;;;8.99;67.47;102182.28;4982586;28;20046;-82
2024/01/25 11:16:34;;;;;;;183.80;87.55;;;;;;;8.78;68.64;102137.53;4992896;28;20124;-81
2024/01/25 11:19:07;;;;;;;192.90;90.85;;;;;;;8.85;67.50;102147.78;4991899;28;20477;-82
2024/01/25 11:21:46;;;;;;;186.32;93.15;;;;;;;9.03;67.69;102178.53;4988541;28;20046;-81